Coe Leni — A8VR8 — position and weather

sailwx.info

Track history (hours):
 
Tides and Currents Weather Stations Pressure Air Temp Water Temp Dewpoint Dewpoint Depression Visibility Wind Speed Wind Dir Waves Ship Positions

Coe Leni

Last reported at 2016-Jul-29 16:14 UTC. Time now 2016-Jul-29 21:44 UTC.
Position N 50°27' W 000°25'.

Length 138 m; draft 6.5 m.

Type: Ship. MMSI: 636092036.

Date/timePositionNaut miles runAvg speedWind from/ knotsBaromVisibWave heightAir tempDewpointWater temp
2016-Jul-29 16:14N 50°27' W 000°25'912.9
2016-Jul-29 15:33N 50°30' W 000°12'1413.6
2016-Jul-29 14:33N 50°33' E 000°08'4314.5
2016-Jul-29 11:33N 50°55' E 001°08'1414.2
2016-Jul-29 10:34N 51°03' E 001°26'1312.8
2016-Jul-29 09:33N 51°11' E 001°42'1212.4
2016-Jul-29 08:34N 51°21' E 001°54'1110.7
2016-Jul-29 07:34N 51°22' E 002°11'1212.3
2016-Jul-29 06:33N 51°23' E 002°31'1212.0
2016-Jul-29 05:33N 51°22' E 002°50'1312.9
2016-Jul-29 04:33N 51°24' E 003°11'1413.8
2016-Jul-29 03:33N 51°26' E 003°32'1111.1
2016-Jul-29 02:34N 51°21' E 003°49'1010.0
2016-Jul-29 01:34N 51°22' E 004°04'8 8.2
2016-Jul-29 00:34N 51°21' E 004°17'0 0.3
2016-Jul-28 23:33N 51°21' E 004°18'4 3.6
2016-Jul-28 22:33N 51°17' E 004°20'2 1.6
2016-Jul-28 21:31N 51°17' E 004°23'0 0.0
2016-Jul-28 20:31N 51°17' E 004°23'0 0.0
2016-Jul-28 19:28N 51°17' E 004°23'0 0.0
2016-Jul-28 18:31N 51°17' E 004°23'0 0.0
2016-Jul-28 17:31N 51°17' E 004°23'0 0.0
2016-Jul-28 16:31N 51°17' E 004°23'0 0.0
2016-Jul-28 15:31N 51°17' E 004°23'0 0.0
2016-Jul-28 14:31N 51°17' E 004°23'0 0.0
2016-Jul-28 13:31N 51°17' E 004°23'0 0.0
2016-Jul-28 12:31N 51°17' E 004°23'0 0.0
2016-Jul-28 11:28N 51°17' E 004°23'0 0.0
2016-Jul-28 10:31N 51°17' E 004°23'0 0.0
2016-Jul-28 09:31N 51°17' E 004°23'0 0.0
2016-Jul-28 08:31N 51°17' E 004°23'0 0.0
2016-Jul-28 07:31N 51°17' E 004°23'0 0.0
2016-Jul-28 06:31N 51°17' E 004°23'0 0.0
2016-Jul-28 05:31N 51°17' E 004°23'0 0.0
2016-Jul-28 04:31N 51°17' E 004°23'0 0.0
2016-Jul-28 03:31N 51°17' E 004°23'0 0.0
2016-Jul-28 02:31N 51°17' E 004°23'0 0.0
2016-Jul-28 01:31N 51°17' E 004°23'0 0.0
2016-Jul-28 00:31N 51°17' E 004°23'0 0.0
2016-Jul-27 23:31N 51°17' E 004°23'0 0.0
2016-Jul-27 22:31N 51°17' E 004°23'0 0.0
2016-Jul-27 21:31N 51°17' E 004°23'0 0.0
2016-Jul-27 20:31N 51°17' E 004°23'0 0.0
2016-Jul-27 19:31N 51°17' E 004°23'0 0.0
2016-Jul-27 18:31N 51°17' E 004°23'0 0.0
2016-Jul-27 17:28N 51°17' E 004°23'0 0.0
2016-Jul-27 16:31N 51°17' E 004°23'0 0.0
2016-Jul-27 15:31N 51°17' E 004°23'0 0.0
2016-Jul-27 14:31N 51°17' E 004°23'0 0.0
2016-Jul-27 13:31N 51°17' E 004°23'0 0.0
2016-Jul-27 12:31N 51°17' E 004°23'0 0.0
2016-Jul-27 11:28N 51°17' E 004°23'0 0.0
2016-Jul-27 10:31N 51°17' E 004°23'0 0.0
2016-Jul-27 09:31N 51°17' E 004°23'0 0.0
2016-Jul-27 08:31N 51°17' E 004°23'0 0.0
2016-Jul-27 07:31N 51°17' E 004°23'0 0.0
2016-Jul-27 06:31N 51°17' E 004°23'0 0.0
2016-Jul-27 05:28N 51°17' E 004°23'0 0.0
2016-Jul-27 04:31N 51°17' E 004°23'0 0.0
2016-Jul-27 03:31N 51°17' E 004°23'0 0.0
2016-Jul-27 02:31N 51°17' E 004°23'0 0.0
2016-Jul-27 01:31N 51°17' E 004°23'0 0.0
2016-Jul-27 00:31N 51°17' E 004°23'0 0.0
2016-Jul-26 23:31N 51°17' E 004°23'0 0.0
2016-Jul-26 22:31N 51°17' E 004°23'0 0.0
2016-Jul-26 21:31N 51°17' E 004°23'0 0.0
2016-Jul-26 20:31N 51°17' E 004°23'0 0.0
2016-Jul-26 19:31N 51°17' E 004°23'0 0.0
2016-Jul-26 18:28N 51°17' E 004°23'0 0.0
2016-Jul-26 17:31N 51°17' E 004°23'0 0.0
2016-Jul-26 16:31N 51°17' E 004°23'2 1.8
2016-Jul-26 15:33N 51°17' E 004°20'1 0.8
2016-Jul-26 14:33N 51°16' E 004°19'1 1.4
2016-Jul-26 13:34N 51°16' E 004°17'1 1.2
2016-Jul-26 12:34N 51°16' E 004°15'1 0.7
2016-Jul-26 11:29N 51°15' E 004°14'0 0.0
2016-Jul-26 10:32N 51°15' E 004°14'0 0.0
2016-Jul-26 09:32N 51°15' E 004°14'0 0.0
2016-Jul-26 08:32N 51°15' E 004°14'0 0.0
2016-Jul-26 07:32N 51°15' E 004°14'0 0.0
2016-Jul-26 06:32N 51°15' E 004°14'0 0.0
2016-Jul-26 05:32N 51°15' E 004°14'0 0.0
2016-Jul-26 04:26N 51°15' E 004°14'0 0.0
2016-Jul-26 03:29N 51°15' E 004°14'0 0.0
2016-Jul-26 02:29N 51°15' E 004°14'0 0.0
2016-Jul-26 01:32N 51°15' E 004°14'0 0.0
2016-Jul-26 00:32N 51°15' E 004°14'0 0.0
2016-Jul-25 23:32N 51°15' E 004°14'0 0.0
2016-Jul-25 22:32N 51°15' E 004°14'0 0.0
2016-Jul-25 21:32N 51°15' E 004°14'0 0.0
2016-Jul-25 20:32N 51°15' E 004°14'0 0.0
2016-Jul-25 19:32N 51°15' E 004°14'0 0.0
2016-Jul-25 18:32N 51°15' E 004°14'0 0.0
2016-Jul-25 17:32N 51°15' E 004°14'0 0.0
2016-Jul-25 16:29N 51°15' E 004°14'0 0.0
2016-Jul-25 15:32N 51°15' E 004°14'0 0.0
2016-Jul-25 14:32N 51°15' E 004°14'0 0.0
2016-Jul-25 13:29N 51°15' E 004°14'0 0.0
2016-Jul-25 12:32N 51°15' E 004°14'0 0.0
2016-Jul-25 11:32N 51°15' E 004°14'0 0.0
2016-Jul-25 10:29N 51°15' E 004°14'0 0.0
2016-Jul-25 09:32N 51°15' E 004°14'0 0.0
2016-Jul-25 08:32N 51°15' E 004°14'0 0.0
2016-Jul-25 07:32N 51°15' E 004°14'0 0.0
2016-Jul-25 06:32N 51°15' E 004°14'0 0.0
2016-Jul-25 05:29N 51°15' E 004°14'0 0.0
2016-Jul-25 04:32N 51°15' E 004°14'0 0.0
2016-Jul-25 03:32N 51°15' E 004°14'0 0.0
2016-Jul-25 02:32N 51°15' E 004°14'0 0.0
2016-Jul-25 01:32N 51°15' E 004°14'0 0.0
2016-Jul-25 00:32N 51°15' E 004°14'0 0.0
2016-Jul-24 23:32N 51°15' E 004°14'0 0.0
2016-Jul-24 22:32N 51°15' E 004°14'0 0.0
2016-Jul-24 21:29N 51°15' E 004°14'0 0.0
2016-Jul-24 20:32N 51°15' E 004°14'0 0.0
2016-Jul-24 19:32N 51°15' E 004°14'0 0.0
2016-Jul-24 18:29N 51°15' E 004°14'0 0.0
2016-Jul-24 17:32N 51°15' E 004°14'0 0.0
2016-Jul-24 16:32N 51°15' E 004°14'0 0.0
2016-Jul-24 15:32N 51°15' E 004°14'0 0.0
2016-Jul-24 14:29N 51°15' E 004°14'0 0.0
2016-Jul-24 13:32N 51°15' E 004°14'0 0.0
2016-Jul-24 12:32N 51°15' E 004°14'0 0.0
2016-Jul-24 11:32N 51°15' E 004°14'0 0.0
2016-Jul-24 10:32N 51°15' E 004°14'0 0.0
2016-Jul-24 09:32N 51°15' E 004°14'0 0.0
2016-Jul-24 08:32N 51°15' E 004°14'0 0.0
2016-Jul-24 07:32N 51°15' E 004°14'0 0.0
2016-Jul-24 06:32N 51°15' E 004°14'0 0.0
2016-Jul-24 05:32N 51°15' E 004°14'0 0.0
2016-Jul-24 04:29N 51°15' E 004°14'0 0.0
2016-Jul-24 03:29N 51°15' E 004°14'0 0.0
2016-Jul-24 02:32N 51°15' E 004°14'0 0.0
2016-Jul-24 01:32N 51°15' E 004°14'0 0.0
2016-Jul-24 00:32N 51°15' E 004°14'0 0.0
2016-Jul-23 23:32N 51°15' E 004°14'0 0.0
2016-Jul-23 22:26N 51°15' E 004°14'0 0.0
2016-Jul-23 21:32N 51°15' E 004°14'0 0.0
2016-Jul-23 20:32N 51°15' E 004°14'0 0.0
2016-Jul-23 19:32N 51°15' E 004°14'0 0.0
2016-Jul-23 18:32N 51°15' E 004°14'0 0.0
2016-Jul-23 17:32N 51°15' E 004°14'0 0.0
2016-Jul-23 16:32N 51°15' E 004°14'0 0.0
2016-Jul-23 15:32N 51°15' E 004°14'0 0.0
2016-Jul-23 14:32N 51°15' E 004°14'0 0.0
2016-Jul-23 13:29N 51°15' E 004°14'0 0.0
2016-Jul-23 12:32N 51°15' E 004°14'0 0.0
2016-Jul-23 11:32N 51°15' E 004°14'0 0.0
2016-Jul-23 10:32N 51°15' E 004°14'0 0.0
2016-Jul-23 09:29N 51°15' E 004°14'0 0.0
2016-Jul-23 08:32N 51°15' E 004°14'0 0.0
2016-Jul-23 07:32N 51°15' E 004°14'0 0.0
2016-Jul-23 06:32N 51°15' E 004°14'0 0.0
2016-Jul-23 04:32N 51°15' E 004°14'0 0.0
2016-Jul-23 03:32N 51°15' E 004°14'0 0.0
2016-Jul-23 02:29N 51°15' E 004°14'0 0.0
2016-Jul-23 01:32N 51°15' E 004°14'0 0.0
2016-Jul-23 00:32N 51°15' E 004°14'0 0.0
2016-Jul-22 23:32N 51°15' E 004°14'0 0.0
2016-Jul-22 22:32N 51°15' E 004°14'0 0.0
2016-Jul-22 21:29N 51°15' E 004°14'0 0.0
2016-Jul-22 20:32N 51°15' E 004°14'0 0.0
2016-Jul-22 19:32N 51°15' E 004°14'0 0.0
2016-Jul-22 18:32N 51°15' E 004°14'0 0.0
2016-Jul-22 17:32N 51°15' E 004°14'0 0.0
2016-Jul-22 16:32N 51°15' E 004°14'0 0.0
2016-Jul-22 15:32N 51°15' E 004°14'0 0.0
2016-Jul-22 14:32N 51°15' E 004°14'0 0.0
2016-Jul-22 13:32N 51°15' E 004°14'0 0.0
2016-Jul-22 12:32N 51°15' E 004°14'0 0.0
2016-Jul-22 11:32N 51°15' E 004°14'0 0.0
2016-Jul-22 10:32N 51°15' E 004°14'0 0.0
2016-Jul-22 09:32N 51°15' E 004°14'0 0.0
2016-Jul-22 08:32N 51°15' E 004°14'0 0.0
2016-Jul-22 07:32N 51°15' E 004°14'0 0.0
2016-Jul-22 04:32N 51°15' E 004°14'0 0.0
2016-Jul-22 03:32N 51°15' E 004°14'0 0.0
2016-Jul-22 02:32N 51°15' E 004°14'0 0.0
2016-Jul-22 01:32N 51°15' E 004°14'0 0.0
2016-Jul-22 00:32N 51°15' E 004°14'0 0.0
2016-Jul-21 23:32N 51°15' E 004°14'0 0.0
2016-Jul-21 22:29N 51°15' E 004°14'0 0.0
2016-Jul-21 21:32N 51°15' E 004°14'0 0.0
2016-Jul-21 20:32N 51°15' E 004°14'0 0.0
2016-Jul-21 19:32N 51°15' E 004°14'0 0.0
2016-Jul-21 18:32N 51°15' E 004°14'0 0.0
2016-Jul-21 17:32N 51°15' E 004°14'0 0.0
2016-Jul-21 16:32N 51°15' E 004°14'0 0.0
2016-Jul-21 15:32N 51°15' E 004°14'0 0.0
2016-Jul-21 14:32N 51°15' E 004°14'0 0.0
2016-Jul-21 13:32N 51°15' E 004°14'0 0.0
2016-Jul-21 12:32N 51°15' E 004°14'0 0.0
2016-Jul-21 11:32N 51°15' E 004°14'0 0.0
2016-Jul-21 10:32N 51°15' E 004°14'0 0.0
2016-Jul-21 09:32N 51°15' E 004°14'0 0.0
2016-Jul-21 08:32N 51°15' E 004°14'0 0.0
2016-Jul-21 07:32N 51°15' E 004°14'0 0.0
2016-Jul-21 06:32N 51°15' E 004°14'0 0.0
2016-Jul-21 05:32N 51°15' E 004°14'0 0.0
2016-Jul-21 04:32N 51°15' E 004°14'0 0.0
2016-Jul-21 03:32N 51°15' E 004°14'0 0.0
2016-Jul-21 02:32N 51°15' E 004°14'0 0.0
2016-Jul-21 01:32N 51°15' E 004°14'0 0.0
2016-Jul-21 00:32N 51°15' E 004°14'0 0.0
2016-Jul-20 23:32N 51°15' E 004°14'0 0.0
2016-Jul-20 22:32N 51°15' E 004°14'0 0.0
2016-Jul-20 21:32N 51°15' E 004°14'0 0.0
2016-Jul-20 20:32N 51°15' E 004°14'0 0.0
2016-Jul-20 19:32N 51°15' E 004°14'0 0.0
2016-Jul-20 18:32N 51°15' E 004°14'0 0.0
2016-Jul-20 17:32N 51°15' E 004°14'0 0.0
2016-Jul-20 16:32N 51°15' E 004°14'0 0.0
2016-Jul-20 15:32N 51°15' E 004°14'0 0.0
2016-Jul-20 14:32N 51°15' E 004°14'0 0.0
2016-Jul-20 13:32N 51°15' E 004°14'0 0.0
2016-Jul-20 12:32N 51°15' E 004°14'0 0.0
2016-Jul-20 11:32N 51°15' E 004°14'0 0.0
2016-Jul-20 10:32N 51°15' E 004°14'0 0.0
2016-Jul-20 09:32N 51°15' E 004°14'0 0.0
2016-Jul-20 08:32N 51°15' E 004°14'0 0.0
2016-Jul-20 07:32N 51°15' E 004°14'0 0.0
2016-Jul-20 06:29N 51°15' E 004°14'0 0.0
2016-Jul-20 05:32N 51°15' E 004°14'0 0.0
2016-Jul-20 04:32N 51°15' E 004°14'0 0.0
2016-Jul-20 03:29N 51°15' E 004°14'0 0.0
2016-Jul-20 02:32N 51°15' E 004°14'0 0.0
2016-Jul-20 01:29N 51°15' E 004°14'0 0.0
2016-Jul-20 00:32N 51°15' E 004°14'0 0.0
2016-Jul-19 23:32N 51°15' E 004°14'0 0.0
2016-Jul-19 22:32N 51°15' E 004°14'0 0.0
2016-Jul-19 21:32N 51°15' E 004°14'0 0.0
2016-Jul-19 20:32N 51°15' E 004°14'0 0.0
2016-Jul-19 19:29N 51°15' E 004°14'0 0.0
2016-Jul-19 18:32N 51°15' E 004°14'0 0.0
2016-Jul-19 17:32N 51°15' E 004°14'0 0.0
2016-Jul-19 16:32N 51°15' E 004°14'  
Track history (hours):
 
Tides and Currents Weather Stations Pressure Air Temp Water Temp Dewpoint Dewpoint Depression Visibility Wind Speed Wind Dir Waves Ship Positions

Coe Leni

Last reported at 2016-Jul-29 16:14 UTC. Time now 2016-Jul-29 21:44 UTC.
Position N 50°27' W 000°25'.

Length 138 m; draft 6.5 m.

Type: Ship. MMSI: 636092036.

Date/timePositionNaut miles runAvg speedWind from/ knotsBaromVisibWave heightAir tempDewpointWater temp
2016-Jul-29 16:14N 50°27' W 000°25'912.9
2016-Jul-29 15:33N 50°30' W 000°12'1413.6
2016-Jul-29 14:33N 50°33' E 000°08'4314.5
2016-Jul-29 11:33N 50°55' E 001°08'1414.2
2016-Jul-29 10:34N 51°03' E 001°26'1312.8
2016-Jul-29 09:33N 51°11' E 001°42'1212.4
2016-Jul-29 08:34N 51°21' E 001°54'1110.7
2016-Jul-29 07:34N 51°22' E 002°11'1212.3
2016-Jul-29 06:33N 51°23' E 002°31'1212.0
2016-Jul-29 05:33N 51°22' E 002°50'1312.9
2016-Jul-29 04:33N 51°24' E 003°11'1413.8
2016-Jul-29 03:33N 51°26' E 003°32'1111.1
2016-Jul-29 02:34N 51°21' E 003°49'1010.0
2016-Jul-29 01:34N 51°22' E 004°04'8 8.2
2016-Jul-29 00:34N 51°21' E 004°17'0 0.3
2016-Jul-28 23:33N 51°21' E 004°18'4 3.6
2016-Jul-28 22:33N 51°17' E 004°20'2 1.6
2016-Jul-28 21:31N 51°17' E 004°23'0 0.0
2016-Jul-28 20:31N 51°17' E 004°23'0 0.0
2016-Jul-28 19:28N 51°17' E 004°23'0 0.0
2016-Jul-28 18:31N 51°17' E 004°23'0 0.0
2016-Jul-28 17:31N 51°17' E 004°23'0 0.0
2016-Jul-28 16:31N 51°17' E 004°23'0 0.0
2016-Jul-28 15:31N 51°17' E 004°23'0 0.0
2016-Jul-28 14:31N 51°17' E 004°23'0 0.0
2016-Jul-28 13:31N 51°17' E 004°23'0 0.0
2016-Jul-28 12:31N 51°17' E 004°23'0 0.0
2016-Jul-28 11:28N 51°17' E 004°23'0 0.0
2016-Jul-28 10:31N 51°17' E 004°23'0 0.0
2016-Jul-28 09:31N 51°17' E 004°23'0 0.0
2016-Jul-28 08:31N 51°17' E 004°23'0 0.0
2016-Jul-28 07:31N 51°17' E 004°23'0 0.0
2016-Jul-28 06:31N 51°17' E 004°23'0 0.0
2016-Jul-28 05:31N 51°17' E 004°23'0 0.0
2016-Jul-28 04:31N 51°17' E 004°23'0 0.0
2016-Jul-28 03:31N 51°17' E 004°23'0 0.0
2016-Jul-28 02:31N 51°17' E 004°23'0 0.0
2016-Jul-28 01:31N 51°17' E 004°23'0 0.0
2016-Jul-28 00:31N 51°17' E 004°23'0 0.0
2016-Jul-27 23:31N 51°17' E 004°23'0 0.0
2016-Jul-27 22:31N 51°17' E 004°23'0 0.0
2016-Jul-27 21:31N 51°17' E 004°23'0 0.0
2016-Jul-27 20:31N 51°17' E 004°23'0 0.0
2016-Jul-27 19:31N 51°17' E 004°23'0 0.0
2016-Jul-27 18:31N 51°17' E 004°23'0 0.0
2016-Jul-27 17:28N 51°17' E 004°23'0 0.0
2016-Jul-27 16:31N 51°17' E 004°23'0 0.0
2016-Jul-27 15:31N 51°17' E 004°23'0 0.0
2016-Jul-27 14:31N 51°17' E 004°23'0 0.0
2016-Jul-27 13:31N 51°17' E 004°23'0 0.0
2016-Jul-27 12:31N 51°17' E 004°23'0 0.0
2016-Jul-27 11:28N 51°17' E 004°23'0 0.0
2016-Jul-27 10:31N 51°17' E 004°23'0 0.0
2016-Jul-27 09:31N 51°17' E 004°23'0 0.0
2016-Jul-27 08:31N 51°17' E 004°23'0 0.0
2016-Jul-27 07:31N 51°17' E 004°23'0 0.0
2016-Jul-27 06:31N 51°17' E 004°23'0 0.0
2016-Jul-27 05:28N 51°17' E 004°23'0 0.0
2016-Jul-27 04:31N 51°17' E 004°23'0 0.0
2016-Jul-27 03:31N 51°17' E 004°23'0 0.0
2016-Jul-27 02:31N 51°17' E 004°23'0 0.0
2016-Jul-27 01:31N 51°17' E 004°23'0 0.0
2016-Jul-27 00:31N 51°17' E 004°23'0 0.0
2016-Jul-26 23:31N 51°17' E 004°23'0 0.0
2016-Jul-26 22:31N 51°17' E 004°23'0 0.0
2016-Jul-26 21:31N 51°17' E 004°23'0 0.0
2016-Jul-26 20:31N 51°17' E 004°23'0 0.0
2016-Jul-26 19:31N 51°17' E 004°23'0 0.0
2016-Jul-26 18:28N 51°17' E 004°23'0 0.0
2016-Jul-26 17:31N 51°17' E 004°23'0 0.0
2016-Jul-26 16:31N 51°17' E 004°23'2 1.8
2016-Jul-26 15:33N 51°17' E 004°20'1 0.8
2016-Jul-26 14:33N 51°16' E 004°19'1 1.4
2016-Jul-26 13:34N 51°16' E 004°17'1 1.2
2016-Jul-26 12:34N 51°16' E 004°15'1 0.7
2016-Jul-26 11:29N 51°15' E 004°14'0 0.0
2016-Jul-26 10:32N 51°15' E 004°14'0 0.0
2016-Jul-26 09:32N 51°15' E 004°14'0 0.0
2016-Jul-26 08:32N 51°15' E 004°14'0 0.0
2016-Jul-26 07:32N 51°15' E 004°14'0 0.0
2016-Jul-26 06:32N 51°15' E 004°14'0 0.0
2016-Jul-26 05:32N 51°15' E 004°14'0 0.0
2016-Jul-26 04:26N 51°15' E 004°14'0 0.0
2016-Jul-26 03:29N 51°15' E 004°14'0 0.0
2016-Jul-26 02:29N 51°15' E 004°14'0 0.0
2016-Jul-26 01:32N 51°15' E 004°14'0 0.0
2016-Jul-26 00:32N 51°15' E 004°14'0 0.0
2016-Jul-25 23:32N 51°15' E 004°14'0 0.0
2016-Jul-25 22:32N 51°15' E 004°14'0 0.0
2016-Jul-25 21:32N 51°15' E 004°14'0 0.0
2016-Jul-25 20:32N 51°15' E 004°14'0 0.0
2016-Jul-25 19:32N 51°15' E 004°14'0 0.0
2016-Jul-25 18:32N 51°15' E 004°14'0 0.0
2016-Jul-25 17:32N 51°15' E 004°14'0 0.0
2016-Jul-25 16:29N 51°15' E 004°14'0 0.0
2016-Jul-25 15:32N 51°15' E 004°14'0 0.0
2016-Jul-25 14:32N 51°15' E 004°14'0 0.0
2016-Jul-25 13:29N 51°15' E 004°14'0 0.0
2016-Jul-25 12:32N 51°15' E 004°14'0 0.0
2016-Jul-25 11:32N 51°15' E 004°14'0 0.0
2016-Jul-25 10:29N 51°15' E 004°14'0 0.0
2016-Jul-25 09:32N 51°15' E 004°14'0 0.0
2016-Jul-25 08:32N 51°15' E 004°14'0 0.0
2016-Jul-25 07:32N 51°15' E 004°14'0 0.0
2016-Jul-25 06:32N 51°15' E 004°14'0 0.0
2016-Jul-25 05:29N 51°15' E 004°14'0 0.0
2016-Jul-25 04:32N 51°15' E 004°14'0 0.0
2016-Jul-25 03:32N 51°15' E 004°14'0 0.0
2016-Jul-25 02:32N 51°15' E 004°14'0 0.0
2016-Jul-25 01:32N 51°15' E 004°14'0 0.0
2016-Jul-25 00:32N 51°15' E 004°14'0 0.0
2016-Jul-24 23:32N 51°15' E 004°14'0 0.0
2016-Jul-24 22:32N 51°15' E 004°14'0 0.0
2016-Jul-24 21:29N 51°15' E 004°14'0 0.0
2016-Jul-24 20:32N 51°15' E 004°14'0 0.0
2016-Jul-24 19:32N 51°15' E 004°14'0 0.0
2016-Jul-24 18:29N 51°15' E 004°14'0 0.0
2016-Jul-24 17:32N 51°15' E 004°14'0 0.0
2016-Jul-24 16:32N 51°15' E 004°14'0 0.0
2016-Jul-24 15:32N 51°15' E 004°14'0 0.0
2016-Jul-24 14:29N 51°15' E 004°14'0 0.0
2016-Jul-24 13:32N 51°15' E 004°14'0 0.0
2016-Jul-24 12:32N 51°15' E 004°14'0 0.0
2016-Jul-24 11:32N 51°15' E 004°14'0 0.0
2016-Jul-24 10:32N 51°15' E 004°14'0 0.0
2016-Jul-24 09:32N 51°15' E 004°14'0 0.0
2016-Jul-24 08:32N 51°15' E 004°14'0 0.0
2016-Jul-24 07:32N 51°15' E 004°14'0 0.0
2016-Jul-24 06:32N 51°15' E 004°14'0 0.0
2016-Jul-24 05:32N 51°15' E 004°14'0 0.0
2016-Jul-24 04:29N 51°15' E 004°14'0 0.0
2016-Jul-24 03:29N 51°15' E 004°14'0 0.0
2016-Jul-24 02:32N 51°15' E 004°14'0 0.0
2016-Jul-24 01:32N 51°15' E 004°14'0 0.0
2016-Jul-24 00:32N 51°15' E 004°14'0 0.0
2016-Jul-23 23:32N 51°15' E 004°14'0 0.0
2016-Jul-23 22:26N 51°15' E 004°14'0 0.0
2016-Jul-23 21:32N 51°15' E 004°14'0 0.0
2016-Jul-23 20:32N 51°15' E 004°14'0 0.0
2016-Jul-23 19:32N 51°15' E 004°14'0 0.0
2016-Jul-23 18:32N 51°15' E 004°14'0 0.0
2016-Jul-23 17:32N 51°15' E 004°14'0 0.0
2016-Jul-23 16:32N 51°15' E 004°14'0 0.0
2016-Jul-23 15:32N 51°15' E 004°14'0 0.0
2016-Jul-23 14:32N 51°15' E 004°14'0 0.0
2016-Jul-23 13:29N 51°15' E 004°14'0 0.0
2016-Jul-23 12:32N 51°15' E 004°14'0 0.0
2016-Jul-23 11:32N 51°15' E 004°14'0 0.0
2016-Jul-23 10:32N 51°15' E 004°14'0 0.0
2016-Jul-23 09:29N 51°15' E 004°14'0 0.0
2016-Jul-23 08:32N 51°15' E 004°14'0 0.0
2016-Jul-23 07:32N 51°15' E 004°14'0 0.0
2016-Jul-23 06:32N 51°15' E 004°14'0 0.0
2016-Jul-23 04:32N 51°15' E 004°14'0 0.0
2016-Jul-23 03:32N 51°15' E 004°14'0 0.0
2016-Jul-23 02:29N 51°15' E 004°14'0 0.0
2016-Jul-23 01:32N 51°15' E 004°14'0 0.0
2016-Jul-23 00:32N 51°15' E 004°14'0 0.0
2016-Jul-22 23:32N 51°15' E 004°14'0 0.0
2016-Jul-22 22:32N 51°15' E 004°14'0 0.0
2016-Jul-22 21:29N 51°15' E 004°14'0 0.0
2016-Jul-22 20:32N 51°15' E 004°14'0 0.0
2016-Jul-22 19:32N 51°15' E 004°14'0 0.0
2016-Jul-22 18:32N 51°15' E 004°14'0 0.0
2016-Jul-22 17:32N 51°15' E 004°14'0 0.0
2016-Jul-22 16:32N 51°15' E 004°14'0 0.0
2016-Jul-22 15:32N 51°15' E 004°14'0 0.0
2016-Jul-22 14:32N 51°15' E 004°14'0 0.0
2016-Jul-22 13:32N 51°15' E 004°14'0 0.0
2016-Jul-22 12:32N 51°15' E 004°14'0 0.0
2016-Jul-22 11:32N 51°15' E 004°14'0 0.0
2016-Jul-22 10:32N 51°15' E 004°14'0 0.0
2016-Jul-22 09:32N 51°15' E 004°14'0 0.0
2016-Jul-22 08:32N 51°15' E 004°14'0 0.0
2016-Jul-22 07:32N 51°15' E 004°14'0 0.0
2016-Jul-22 04:32N 51°15' E 004°14'0 0.0
2016-Jul-22 03:32N 51°15' E 004°14'0 0.0
2016-Jul-22 02:32N 51°15' E 004°14'0 0.0
2016-Jul-22 01:32N 51°15' E 004°14'0 0.0
2016-Jul-22 00:32N 51°15' E 004°14'0 0.0
2016-Jul-21 23:32N 51°15' E 004°14'0 0.0
2016-Jul-21 22:29N 51°15' E 004°14'0 0.0
2016-Jul-21 21:32N 51°15' E 004°14'0 0.0
2016-Jul-21 20:32N 51°15' E 004°14'0 0.0
2016-Jul-21 19:32N 51°15' E 004°14'0 0.0
2016-Jul-21 18:32N 51°15' E 004°14'0 0.0
2016-Jul-21 17:32N 51°15' E 004°14'0 0.0
2016-Jul-21 16:32N 51°15' E 004°14'0 0.0
2016-Jul-21 15:32N 51°15' E 004°14'0 0.0
2016-Jul-21 14:32N 51°15' E 004°14'0 0.0
2016-Jul-21 13:32N 51°15' E 004°14'0 0.0
2016-Jul-21 12:32N 51°15' E 004°14'0 0.0
2016-Jul-21 11:32N 51°15' E 004°14'0 0.0
2016-Jul-21 10:32N 51°15' E 004°14'0 0.0
2016-Jul-21 09:32N 51°15' E 004°14'0 0.0
2016-Jul-21 08:32N 51°15' E 004°14'0 0.0
2016-Jul-21 07:32N 51°15' E 004°14'0 0.0
2016-Jul-21 06:32N 51°15' E 004°14'0 0.0
2016-Jul-21 05:32N 51°15' E 004°14'0 0.0
2016-Jul-21 04:32N 51°15' E 004°14'0 0.0
2016-Jul-21 03:32N 51°15' E 004°14'0 0.0
2016-Jul-21 02:32N 51°15' E 004°14'0 0.0
2016-Jul-21 01:32N 51°15' E 004°14'0 0.0
2016-Jul-21 00:32N 51°15' E 004°14'0 0.0
2016-Jul-20 23:32N 51°15' E 004°14'0 0.0
2016-Jul-20 22:32N 51°15' E 004°14'0 0.0
2016-Jul-20 21:32N 51°15' E 004°14'0 0.0
2016-Jul-20 20:32N 51°15' E 004°14'0 0.0
2016-Jul-20 19:32N 51°15' E 004°14'0 0.0
2016-Jul-20 18:32N 51°15' E 004°14'0 0.0
2016-Jul-20 17:32N 51°15' E 004°14'0 0.0
2016-Jul-20 16:32N 51°15' E 004°14'0 0.0
2016-Jul-20 15:32N 51°15' E 004°14'0 0.0
2016-Jul-20 14:32N 51°15' E 004°14'0 0.0
2016-Jul-20 13:32N 51°15' E 004°14'0 0.0
2016-Jul-20 12:32N 51°15' E 004°14'0 0.0
2016-Jul-20 11:32N 51°15' E 004°14'0 0.0
2016-Jul-20 10:32N 51°15' E 004°14'0 0.0
2016-Jul-20 09:32N 51°15' E 004°14'0 0.0
2016-Jul-20 08:32N 51°15' E 004°14'0 0.0
2016-Jul-20 07:32N 51°15' E 004°14'0 0.0
2016-Jul-20 06:29N 51°15' E 004°14'0 0.0
2016-Jul-20 05:32N 51°15' E 004°14'0 0.0
2016-Jul-20 04:32N 51°15' E 004°14'0 0.0
2016-Jul-20 03:29N 51°15' E 004°14'0 0.0
2016-Jul-20 02:32N 51°15' E 004°14'0 0.0
2016-Jul-20 01:29N 51°15' E 004°14'0 0.0
2016-Jul-20 00:32N 51°15' E 004°14'0 0.0
2016-Jul-19 23:32N 51°15' E 004°14'0 0.0
2016-Jul-19 22:32N 51°15' E 004°14'0 0.0
2016-Jul-19 21:32N 51°15' E 004°14'0 0.0
2016-Jul-19 20:32N 51°15' E 004°14'0 0.0
2016-Jul-19 19:29N 51°15' E 004°14'0 0.0
2016-Jul-19 18:32N 51°15' E 004°14'0 0.0
2016-Jul-19 17:32N 51°15' E 004°14'0 0.0
2016-Jul-19 16:32N 51°15' E 004°14'  

Dump ship's entire track history